sensor_id;sensor_type;location;lat;lon;timestamp;temperature;humidity
9984;DHT22;16737;50.932;6.780;2022-07-29T00:01:59;22.90;57.20
9984;DHT22;16737;50.932;6.780;2022-07-29T00:04:26;22.90;57.20
9984;DHT22;16737;50.932;6.780;2022-07-29T00:06:53;22.90;57.20
9984;DHT22;16737;50.932;6.780;2022-07-29T00:09:20;22.90;57.30
9984;DHT22;16737;50.932;6.780;2022-07-29T00:11:48;22.90;57.30
9984;DHT22;16737;50.932;6.780;2022-07-29T00:14:15;22.80;57.30
9984;DHT22;16737;50.932;6.780;2022-07-29T00:16:42;22.80;57.40
9984;DHT22;16737;50.932;6.780;2022-07-29T00:19:11;22.80;57.40
9984;DHT22;16737;50.932;6.780;2022-07-29T00:21:38;22.80;57.50
9984;DHT22;16737;50.932;6.780;2022-07-29T00:24:05;22.80;57.40
9984;DHT22;16737;50.932;6.780;2022-07-29T00:26:32;22.80;57.60
9984;DHT22;16737;50.932;6.780;2022-07-29T00:29:08;22.80;57.70
9984;DHT22;16737;50.932;6.780;2022-07-29T00:31:35;22.70;57.90
9984;DHT22;16737;50.932;6.780;2022-07-29T00:34:03;22.70;57.70
9984;DHT22;16737;50.932;6.780;2022-07-29T00:36:33;22.70;57.80
9984;DHT22;16737;50.932;6.780;2022-07-29T00:38:59;22.70;57.90
9984;DHT22;16737;50.932;6.780;2022-07-29T00:41:26;22.70;57.90
9984;DHT22;16737;50.932;6.780;2022-07-29T00:43:53;22.70;58.00
9984;DHT22;16737;50.932;6.780;2022-07-29T00:46:20;22.70;58.00
9984;DHT22;16737;50.932;6.780;2022-07-29T00:48:47;22.70;58.10
9984;DHT22;16737;50.932;6.780;2022-07-29T00:51:15;22.70;58.10
9984;DHT22;16737;50.932;6.780;2022-07-29T00:53:43;22.70;58.10
9984;DHT22;16737;50.932;6.780;2022-07-29T00:56:15;22.70;58.40
9984;DHT22;16737;50.932;6.780;2022-07-29T00:58:42;22.70;58.30
9984;DHT22;16737;50.932;6.780;2022-07-29T01:01:09;22.60;58.30
9984;DHT22;16737;50.932;6.780;2022-07-29T01:03:37;22.60;58.40
9984;DHT22;16737;50.932;6.780;2022-07-29T01:06:04;22.60;58.40
9984;DHT22;16737;50.932;6.780;2022-07-29T01:08:32;22.60;58.40
9984;DHT22;16737;50.932;6.780;2022-07-29T01:11:01;22.60;58.60
9984;DHT22;16737;50.932;6.780;2022-07-29T01:13:30;22.60;59.10
9984;DHT22;16737;50.932;6.780;2022-07-29T01:16:04;22.60;58.80
9984;DHT22;16737;50.932;6.780;2022-07-29T01:18:44;22.60;59.10
9984;DHT22;16737;50.932;6.780;2022-07-29T01:21:24;22.50;59.00
9984;DHT22;16737;50.932;6.780;2022-07-29T01:24:39;22.50;59.50
9984;DHT22;16737;50.932;6.780;2022-07-29T01:27:41;22.50;60.10
9984;DHT22;16737;50.932;6.780;2022-07-29T01:30:19;22.40;59.70
9984;DHT22;16737;50.932;6.780;2022-07-29T01:32:53;22.40;59.50
9984;DHT22;16737;50.932;6.780;2022-07-29T01:35:25;22.40;59.70
9984;DHT22;16737;50.932;6.780;2022-07-29T01:38:05;22.30;59.70
9984;DHT22;16737;50.932;6.780;2022-07-29T01:40:42;22.30;59.60
9984;DHT22;16737;50.932;6.780;2022-07-29T01:43:18;22.20;59.90
9984;DHT22;16737;50.932;6.780;2022-07-29T01:45:53;22.20;59.90
9984;DHT22;16737;50.932;6.780;2022-07-29T01:48:31;22.20;60.20
9984;DHT22;16737;50.932;6.780;2022-07-29T01:51:11;22.10;60.40
9984;DHT22;16737;50.932;6.780;2022-07-29T01:53:45;22.10;60.30
9984;DHT22;16737;50.932;6.780;2022-07-29T01:56:18;22.10;60.40
9984;DHT22;16737;50.932;6.780;2022-07-29T01:58:48;22.10;60.40
9984;DHT22;16737;50.932;6.780;2022-07-29T02:01:18;22.00;61.20
9984;DHT22;16737;50.932;6.780;2022-07-29T02:03:48;22.00;60.90
9984;DHT22;16737;50.932;6.780;2022-07-29T02:06:18;22.00;60.70
9984;DHT22;16737;50.932;6.780;2022-07-29T02:08:47;22.00;61.00
9984;DHT22;16737;50.932;6.780;2022-07-29T02:11:16;22.00;60.80
9984;DHT22;16737;50.932;6.780;2022-07-29T02:13:44;21.90;60.80
9984;DHT22;16737;50.932;6.780;2022-07-29T02:16:13;21.90;60.90
9984;DHT22;16737;50.932;6.780;2022-07-29T02:18:45;21.90;61.00
9984;DHT22;16737;50.932;6.780;2022-07-29T02:21:21;21.90;61.40
9984;DHT22;16737;50.932;6.780;2022-07-29T02:23:52;21.80;61.40
9984;DHT22;16737;50.932;6.780;2022-07-29T02:26:23;21.80;61.40
9984;DHT22;16737;50.932;6.780;2022-07-29T02:28:54;21.80;61.70
9984;DHT22;16737;50.932;6.780;2022-07-29T02:31:28;21.80;61.80
9984;DHT22;16737;50.932;6.780;2022-07-29T02:34:05;21.80;62.20
9984;DHT22;16737;50.932;6.780;2022-07-29T02:36:34;21.70;62.10
9984;DHT22;16737;50.932;6.780;2022-07-29T02:39:03;21.70;61.80
9984;DHT22;16737;50.932;6.780;2022-07-29T02:41:37;21.70;62.00
9984;DHT22;16737;50.932;6.780;2022-07-29T02:44:10;21.70;62.50
9984;DHT22;16737;50.932;6.780;2022-07-29T02:46:43;21.70;62.40
9984;DHT22;16737;50.932;6.780;2022-07-29T02:49:21;21.70;63.00
9984;DHT22;16737;50.932;6.780;2022-07-29T02:52:00;21.70;63.10
9984;DHT22;16737;50.932;6.780;2022-07-29T02:54:33;21.70;62.90
9984;DHT22;16737;50.932;6.780;2022-07-29T02:57:14;21.60;62.90
9984;DHT22;16737;50.932;6.780;2022-07-29T02:59:48;21.60;62.90
9984;DHT22;16737;50.932;6.780;2022-07-29T03:02:20;21.60;62.60
9984;DHT22;16737;50.932;6.780;2022-07-29T03:04:51;21.50;62.80
9984;DHT22;16737;50.932;6.780;2022-07-29T03:07:21;21.50;62.90
9984;DHT22;16737;50.932;6.780;2022-07-29T03:09:50;21.50;62.60
9984;DHT22;16737;50.932;6.780;2022-07-29T03:12:18;21.40;63.50
9984;DHT22;16737;50.932;6.780;2022-07-29T03:14:47;21.40;62.70
9984;DHT22;16737;50.932;6.780;2022-07-29T03:17:15;21.40;62.70
9984;DHT22;16737;50.932;6.780;2022-07-29T03:19:47;21.40;62.80
9984;DHT22;16737;50.932;6.780;2022-07-29T03:22:20;21.40;62.80
9984;DHT22;16737;50.932;6.780;2022-07-29T03:24:48;21.30;62.80
9984;DHT22;16737;50.932;6.780;2022-07-29T03:27:15;21.30;62.90
9984;DHT22;16737;50.932;6.780;2022-07-29T03:29:43;21.30;63.00
9984;DHT22;16737;50.932;6.780;2022-07-29T03:32:13;21.30;63.00
9984;DHT22;16737;50.932;6.780;2022-07-29T03:34:41;21.30;63.00
9984;DHT22;16737;50.932;6.780;2022-07-29T03:37:12;21.20;62.90
9984;DHT22;16737;50.932;6.780;2022-07-29T03:39:44;21.20;63.20
9984;DHT22;16737;50.932;6.780;2022-07-29T03:42:31;21.20;63.20
9984;DHT22;16737;50.932;6.780;2022-07-29T03:45:06;21.20;63.50
9984;DHT22;16737;50.932;6.780;2022-07-29T03:47:38;21.10;63.30
9984;DHT22;16737;50.932;6.780;2022-07-29T03:50:14;21.10;63.30
9984;DHT22;16737;50.932;6.780;2022-07-29T03:52:43;21.10;63.60
9984;DHT22;16737;50.932;6.780;2022-07-29T03:55:12;21.10;63.60
9984;DHT22;16737;50.932;6.780;2022-07-29T03:57:41;21.10;63.50
9984;DHT22;16737;50.932;6.780;2022-07-29T04:00:09;21.10;63.60
9984;DHT22;16737;50.932;6.780;2022-07-29T04:02:39;21.00;63.70
9984;DHT22;16737;50.932;6.780;2022-07-29T04:05:12;21.00;63.80
9984;DHT22;16737;50.932;6.780;2022-07-29T04:07:40;21.00;64.20
9984;DHT22;16737;50.932;6.780;2022-07-29T04:10:12;21.00;64.10
9984;DHT22;16737;50.932;6.780;2022-07-29T04:12:44;21.00;64.30
9984;DHT22;16737;50.932;6.780;2022-07-29T04:15:12;20.90;64.30
9984;DHT22;16737;50.932;6.780;2022-07-29T04:17:41;20.90;64.50
9984;DHT22;16737;50.932;6.780;2022-07-29T04:20:10;20.90;64.70
9984;DHT22;16737;50.932;6.780;2022-07-29T04:22:39;20.90;65.60
9984;DHT22;16737;50.932;6.780;2022-07-29T04:27:48;20.80;65.50
9984;DHT22;16737;50.932;6.780;2022-07-29T04:30:29;20.80;65.40
9984;DHT22;16737;50.932;6.780;2022-07-29T04:33:16;20.80;65.70
9984;DHT22;16737;50.932;6.780;2022-07-29T04:35:46;20.70;65.60
9984;DHT22;16737;50.932;6.780;2022-07-29T04:38:14;20.70;65.80
9984;DHT22;16737;50.932;6.780;2022-07-29T04:40:43;20.70;66.20
9984;DHT22;16737;50.932;6.780;2022-07-29T04:43:29;20.70;67.60
9984;DHT22;16737;50.932;6.780;2022-07-29T04:46:02;20.70;66.60
9984;DHT22;16737;50.932;6.780;2022-07-29T04:48:30;20.70;67.90
9984;DHT22;16737;50.932;6.780;2022-07-29T04:50:58;20.60;66.90
9984;DHT22;16737;50.932;6.780;2022-07-29T04:53:26;20.60;67.20
9984;DHT22;16737;50.932;6.780;2022-07-29T04:55:55;20.60;67.80
9984;DHT22;16737;50.932;6.780;2022-07-29T04:58:23;20.50;68.20
9984;DHT22;16737;50.932;6.780;2022-07-29T05:00:52;20.50;68.20
9984;DHT22;16737;50.932;6.780;2022-07-29T05:03:19;20.50;68.40
9984;DHT22;16737;50.932;6.780;2022-07-29T05:05:46;20.50;68.80
9984;DHT22;16737;50.932;6.780;2022-07-29T05:08:14;20.50;69.00
9984;DHT22;16737;50.932;6.780;2022-07-29T05:10:42;20.40;69.30
9984;DHT22;16737;50.932;6.780;2022-07-29T05:13:11;20.40;69.50
9984;DHT22;16737;50.932;6.780;2022-07-29T05:15:41;20.40;70.20
9984;DHT22;16737;50.932;6.780;2022-07-29T05:18:09;20.40;70.00
9984;DHT22;16737;50.932;6.780;2022-07-29T05:20:37;20.30;70.00
9984;DHT22;16737;50.932;6.780;2022-07-29T05:23:05;20.30;70.30
9984;DHT22;16737;50.932;6.780;2022-07-29T05:26:00;20.30;70.50
9984;DHT22;16737;50.932;6.780;2022-07-29T05:28:29;20.30;72.40
9984;DHT22;16737;50.932;6.780;2022-07-29T05:31:00;20.30;71.10
9984;DHT22;16737;50.932;6.780;2022-07-29T05:33:27;20.30;70.90
9984;DHT22;16737;50.932;6.780;2022-07-29T05:36:05;20.30;71.20
9984;DHT22;16737;50.932;6.780;2022-07-29T05:38:34;20.30;71.50
9984;DHT22;16737;50.932;6.780;2022-07-29T05:41:02;20.30;71.40
9984;DHT22;16737;50.932;6.780;2022-07-29T05:43:32;20.40;71.70
9984;DHT22;16737;50.932;6.780;2022-07-29T05:46:02;20.40;72.20
9984;DHT22;16737;50.932;6.780;2022-07-29T05:48:32;20.40;72.20
9984;DHT22;16737;50.932;6.780;2022-07-29T05:51:03;20.40;72.80
9984;DHT22;16737;50.932;6.780;2022-07-29T05:53:31;20.40;72.20
9984;DHT22;16737;50.932;6.780;2022-07-29T05:56:11;20.40;72.30
9984;DHT22;16737;50.932;6.780;2022-07-29T05:58:43;20.50;73.00
9984;DHT22;16737;50.932;6.780;2022-07-29T06:01:11;20.50;73.20
9984;DHT22;16737;50.932;6.780;2022-07-29T06:03:39;20.50;72.70
9984;DHT22;16737;50.932;6.780;2022-07-29T06:06:07;20.50;72.80
9984;DHT22;16737;50.932;6.780;2022-07-29T06:08:35;20.50;72.70
9984;DHT22;16737;50.932;6.780;2022-07-29T06:11:04;20.50;72.60
9984;DHT22;16737;50.932;6.780;2022-07-29T06:13:33;20.50;72.70
9984;DHT22;16737;50.932;6.780;2022-07-29T06:16:03;20.50;72.80
9984;DHT22;16737;50.932;6.780;2022-07-29T06:18:31;20.50;73.10
9984;DHT22;16737;50.932;6.780;2022-07-29T06:20:59;20.60;73.00
9984;DHT22;16737;50.932;6.780;2022-07-29T06:23:27;20.50;73.00
9984;DHT22;16737;50.932;6.780;2022-07-29T06:25:54;20.60;73.30
9984;DHT22;16737;50.932;6.780;2022-07-29T06:28:22;20.60;73.30
9984;DHT22;16737;50.932;6.780;2022-07-29T06:30:50;20.60;73.60
9984;DHT22;16737;50.932;6.780;2022-07-29T06:51:28;20.70;75.90
9984;DHT22;16737;50.932;6.780;2022-07-29T06:53:56;20.70;75.00
9984;DHT22;16737;50.932;6.780;2022-07-29T06:56:24;20.60;74.80
9984;DHT22;16737;50.932;6.780;2022-07-29T06:59:22;20.60;75.00
9984;DHT22;16737;50.932;6.780;2022-07-29T07:01:50;20.60;75.10
9984;DHT22;16737;50.932;6.780;2022-07-29T07:04:17;20.60;75.60
9984;DHT22;16737;50.932;6.780;2022-07-29T07:06:48;20.60;75.70
9984;DHT22;16737;50.932;6.780;2022-07-29T07:09:16;20.60;76.40
9984;DHT22;16737;50.932;6.780;2022-07-29T07:11:44;20.60;75.90
9984;DHT22;16737;50.932;6.780;2022-07-29T07:14:11;20.60;76.00
9984;DHT22;16737;50.932;6.780;2022-07-29T07:16:39;20.70;76.60
9984;DHT22;16737;50.932;6.780;2022-07-29T07:19:07;20.60;76.90
9984;DHT22;16737;50.932;6.780;2022-07-29T07:21:34;20.70;77.60
9984;DHT22;16737;50.932;6.780;2022-07-29T07:24:22;20.70;78.10
9984;DHT22;16737;50.932;6.780;2022-07-29T07:26:50;20.70;80.20
9984;DHT22;16737;50.932;6.780;2022-07-29T07:29:18;20.70;78.30
9984;DHT22;16737;50.932;6.780;2022-07-29T07:31:46;20.70;78.60
9984;DHT22;16737;50.932;6.780;2022-07-29T07:34:14;20.80;78.90
9984;DHT22;16737;50.932;6.780;2022-07-29T07:36:41;20.80;79.00
9984;DHT22;16737;50.932;6.780;2022-07-29T07:39:09;20.80;79.10
9984;DHT22;16737;50.932;6.780;2022-07-29T07:41:38;20.80;79.00
9984;DHT22;16737;50.932;6.780;2022-07-29T07:44:06;20.90;79.40
9984;DHT22;16737;50.932;6.780;2022-07-29T07:46:34;20.90;79.20
9984;DHT22;16737;50.932;6.780;2022-07-29T07:49:01;20.90;79.80
9984;DHT22;16737;50.932;6.780;2022-07-29T07:51:29;20.90;80.00
9984;DHT22;16737;50.932;6.780;2022-07-29T08:08:52;21.10;81.90
9984;DHT22;16737;50.932;6.780;2022-07-29T08:11:20;21.00;80.10
9984;DHT22;16737;50.932;6.780;2022-07-29T08:13:48;21.10;80.40
9984;DHT22;16737;50.932;6.780;2022-07-29T08:16:16;21.10;80.50
9984;DHT22;16737;50.932;6.780;2022-07-29T08:18:44;21.10;80.80
9984;DHT22;16737;50.932;6.780;2022-07-29T08:21:13;21.10;81.20
9984;DHT22;16737;50.932;6.780;2022-07-29T08:23:43;21.10;81.00
9984;DHT22;16737;50.932;6.780;2022-07-29T08:26:18;21.10;81.10
9984;DHT22;16737;50.932;6.780;2022-07-29T08:28:48;21.20;81.40
9984;DHT22;16737;50.932;6.780;2022-07-29T08:31:17;21.10;80.70
9984;DHT22;16737;50.932;6.780;2022-07-29T08:33:44;21.20;81.00
9984;DHT22;16737;50.932;6.780;2022-07-29T08:36:13;21.20;81.60
9984;DHT22;16737;50.932;6.780;2022-07-29T08:38:40;21.20;81.90
9984;DHT22;16737;50.932;6.780;2022-07-29T08:41:08;21.20;82.00
9984;DHT22;16737;50.932;6.780;2022-07-29T08:43:39;21.30;82.30
9984;DHT22;16737;50.932;6.780;2022-07-29T08:46:07;21.30;82.60
9984;DHT22;16737;50.932;6.780;2022-07-29T08:48:36;21.30;82.20
9984;DHT22;16737;50.932;6.780;2022-07-29T08:51:06;21.40;83.00
9984;DHT22;16737;50.932;6.780;2022-07-29T08:53:34;21.40;83.10
9984;DHT22;16737;50.932;6.780;2022-07-29T08:56:04;21.40;82.50
9984;DHT22;16737;50.932;6.780;2022-07-29T09:13:18;21.60;83.20
9984;DHT22;16737;50.932;6.780;2022-07-29T09:15:46;21.60;82.20
9984;DHT22;16737;50.932;6.780;2022-07-29T09:18:33;21.70;82.40
9984;DHT22;16737;50.932;6.780;2022-07-29T09:21:02;21.70;83.30
9984;DHT22;16737;50.932;6.780;2022-07-29T09:24:02;21.70;82.40
9984;DHT22;16737;50.932;6.780;2022-07-29T09:26:35;21.80;83.00
9984;DHT22;16737;50.932;6.780;2022-07-29T09:29:12;21.90;82.20
9984;DHT22;16737;50.932;6.780;2022-07-29T09:31:42;21.90;82.00
9984;DHT22;16737;50.932;6.780;2022-07-29T09:34:13;22.00;82.00
9984;DHT22;16737;50.932;6.780;2022-07-29T09:36:43;22.10;82.00
9984;DHT22;16737;50.932;6.780;2022-07-29T09:39:13;22.20;82.00
9984;DHT22;16737;50.932;6.780;2022-07-29T09:41:47;22.30;81.00
9984;DHT22;16737;50.932;6.780;2022-07-29T09:44:17;22.40;81.10
9984;DHT22;16737;50.932;6.780;2022-07-29T09:46:58;22.50;81.20
9984;DHT22;16737;50.932;6.780;2022-07-29T09:49:31;22.60;81.50
9984;DHT22;16737;50.932;6.780;2022-07-29T09:52:05;22.70;81.40
9984;DHT22;16737;50.932;6.780;2022-07-29T09:54:35;22.70;81.40
9984;DHT22;16737;50.932;6.780;2022-07-29T09:57:04;22.80;81.50
9984;DHT22;16737;50.932;6.780;2022-07-29T09:59:56;22.90;81.60
9984;DHT22;16737;50.932;6.780;2022-07-29T10:02:28;23.00;81.70
9984;DHT22;16737;50.932;6.780;2022-07-29T10:04:58;23.10;81.50
9984;DHT22;16737;50.932;6.780;2022-07-29T10:07:27;23.20;81.30
9984;DHT22;16737;50.932;6.780;2022-07-29T10:10:17;23.20;81.20
9984;DHT22;16737;50.932;6.780;2022-07-29T10:12:50;23.30;81.30
9984;DHT22;16737;50.932;6.780;2022-07-29T10:15:23;23.40;81.30
9984;DHT22;16737;50.932;6.780;2022-07-29T10:17:56;23.40;81.20
9984;DHT22;16737;50.932;6.780;2022-07-29T10:20:25;23.50;81.80
9984;DHT22;16737;50.932;6.780;2022-07-29T10:22:54;23.60;82.20
9984;DHT22;16737;50.932;6.780;2022-07-29T10:25:22;23.80;82.10
9984;DHT22;16737;50.932;6.780;2022-07-29T10:27:51;23.90;82.10
9984;DHT22;16737;50.932;6.780;2022-07-29T10:30:24;24.00;81.60
9984;DHT22;16737;50.932;6.780;2022-07-29T10:33:13;24.10;81.10
9984;DHT22;16737;50.932;6.780;2022-07-29T10:36:05;24.30;81.00
9984;DHT22;16737;50.932;6.780;2022-07-29T10:38:51;24.40;81.60
9984;DHT22;16737;50.932;6.780;2022-07-29T10:41:38;24.50;81.20
9984;DHT22;16737;50.932;6.780;2022-07-29T10:44:16;24.70;81.00
9984;DHT22;16737;50.932;6.780;2022-07-29T10:46:47;24.80;81.00
9984;DHT22;16737;50.932;6.780;2022-07-29T10:49:18;24.90;80.70
9984;DHT22;16737;50.932;6.780;2022-07-29T10:52:01;25.10;80.50
9984;DHT22;16737;50.932;6.780;2022-07-29T10:54:39;25.20;79.30
9984;DHT22;16737;50.932;6.780;2022-07-29T10:57:20;25.30;79.10
9984;DHT22;16737;50.932;6.780;2022-07-29T11:02:55;25.50;78.50
9984;DHT22;16737;50.932;6.780;2022-07-29T11:05:25;25.70;78.20
9984;DHT22;16737;50.932;6.780;2022-07-29T11:08:17;25.80;78.10
9984;DHT22;16737;50.932;6.780;2022-07-29T11:10:53;25.90;77.40
9984;DHT22;16737;50.932;6.780;2022-07-29T11:13:57;26.00;77.10
9984;DHT22;16737;50.932;6.780;2022-07-29T11:16:25;26.20;76.90
9984;DHT22;16737;50.932;6.780;2022-07-29T11:34:25;26.70;74.00
9984;DHT22;16737;50.932;6.780;2022-07-29T11:37:15;26.70;74.00
9984;DHT22;16737;50.932;6.780;2022-07-29T11:39:45;26.80;73.50
9984;DHT22;16737;50.932;6.780;2022-07-29T11:42:42;26.80;73.50
9984;DHT22;16737;50.932;6.780;2022-07-29T11:45:16;26.90;72.30
9984;DHT22;16737;50.932;6.780;2022-07-29T11:47:52;26.90;72.00
9984;DHT22;16737;50.932;6.780;2022-07-29T11:50:31;27.00;71.80
9984;DHT22;16737;50.932;6.780;2022-07-29T11:53:09;27.10;71.20
9984;DHT22;16737;50.932;6.780;2022-07-29T11:55:39;27.10;71.90
9984;DHT22;16737;50.932;6.780;2022-07-29T11:58:08;27.20;71.90
9984;DHT22;16737;50.932;6.780;2022-07-29T12:00:38;27.30;71.80
9984;DHT22;16737;50.932;6.780;2022-07-29T12:03:09;27.40;71.00
9984;DHT22;16737;50.932;6.780;2022-07-29T12:05:43;27.50;70.70
9984;DHT22;16737;50.932;6.780;2022-07-29T12:08:15;27.50;69.70
9984;DHT22;16737;50.932;6.780;2022-07-29T12:10:46;27.70;69.70
9984;DHT22;16737;50.932;6.780;2022-07-29T12:13:16;27.70;68.80
9984;DHT22;16737;50.932;6.780;2022-07-29T12:15:52;27.80;68.70
9984;DHT22;16737;50.932;6.780;2022-07-29T12:18:22;27.80;66.50
9984;DHT22;16737;50.932;6.780;2022-07-29T12:35:37;27.90;66.00
9984;DHT22;16737;50.932;6.780;2022-07-29T12:38:05;27.90;66.30
9984;DHT22;16737;50.932;6.780;2022-07-29T12:40:33;27.80;66.60
9984;DHT22;16737;50.932;6.780;2022-07-29T12:43:12;27.80;66.10
9984;DHT22;16737;50.932;6.780;2022-07-29T12:45:43;27.90;63.80
9984;DHT22;16737;50.932;6.780;2022-07-29T12:48:13;27.90;65.70
9984;DHT22;16737;50.932;6.780;2022-07-29T12:51:01;27.90;66.00
9984;DHT22;16737;50.932;6.780;2022-07-29T13:08:17;28.00;64.00
9984;DHT22;16737;50.932;6.780;2022-07-29T13:10:46;28.00;65.00
9984;DHT22;16737;50.932;6.780;2022-07-29T13:13:15;28.00;65.40
9984;DHT22;16737;50.932;6.780;2022-07-29T13:15:44;28.00;65.10
9984;DHT22;16737;50.932;6.780;2022-07-29T13:18:29;28.10;65.10
9984;DHT22;16737;50.932;6.780;2022-07-29T13:24:48;28.20;64.20
9984;DHT22;16737;50.932;6.780;2022-07-29T13:27:17;28.20;64.30
9984;DHT22;16737;50.932;6.780;2022-07-29T13:29:45;28.20;65.00
9984;DHT22;16737;50.932;6.780;2022-07-29T13:32:14;28.20;64.90
9984;DHT22;16737;50.932;6.780;2022-07-29T13:34:42;28.30;64.20
9984;DHT22;16737;50.932;6.780;2022-07-29T13:37:10;28.30;64.40
9984;DHT22;16737;50.932;6.780;2022-07-29T13:39:37;28.30;64.30
9984;DHT22;16737;50.932;6.780;2022-07-29T13:42:07;28.40;64.20
9984;DHT22;16737;50.932;6.780;2022-07-29T13:44:35;28.40;63.70
9984;DHT22;16737;50.932;6.780;2022-07-29T13:47:02;28.40;63.60
9984;DHT22;16737;50.932;6.780;2022-07-29T13:49:29;28.50;63.30
9984;DHT22;16737;50.932;6.780;2022-07-29T13:51:56;28.60;63.30
9984;DHT22;16737;50.932;6.780;2022-07-29T13:54:24;28.60;62.80
9984;DHT22;16737;50.932;6.780;2022-07-29T13:56:51;28.60;62.30
9984;DHT22;16737;50.932;6.780;2022-07-29T13:59:19;28.70;62.20
9984;DHT22;16737;50.932;6.780;2022-07-29T14:01:46;28.70;62.30
9984;DHT22;16737;50.932;6.780;2022-07-29T14:04:13;28.80;62.50
9984;DHT22;16737;50.932;6.780;2022-07-29T14:06:41;28.80;62.50
9984;DHT22;16737;50.932;6.780;2022-07-29T14:09:08;28.80;62.10
9984;DHT22;16737;50.932;6.780;2022-07-29T14:11:35;28.90;61.50
9984;DHT22;16737;50.932;6.780;2022-07-29T14:14:03;28.90;61.20
9984;DHT22;16737;50.932;6.780;2022-07-29T14:16:32;28.90;61.10
9984;DHT22;16737;50.932;6.780;2022-07-29T14:18:59;28.90;60.70
9984;DHT22;16737;50.932;6.780;2022-07-29T14:21:26;28.90;61.20
9984;DHT22;16737;50.932;6.780;2022-07-29T14:23:53;29.00;60.90
9984;DHT22;16737;50.932;6.780;2022-07-29T14:26:21;29.00;60.60
9984;DHT22;16737;50.932;6.780;2022-07-29T14:28:48;29.00;60.40
9984;DHT22;16737;50.932;6.780;2022-07-29T14:31:16;29.10;60.40
9984;DHT22;16737;50.932;6.780;2022-07-29T14:33:44;29.10;60.50
9984;DHT22;16737;50.932;6.780;2022-07-29T14:36:12;29.10;60.00
9984;DHT22;16737;50.932;6.780;2022-07-29T14:38:39;29.10;60.20
9984;DHT22;16737;50.932;6.780;2022-07-29T14:41:06;29.20;60.20
9984;DHT22;16737;50.932;6.780;2022-07-29T14:43:34;29.20;60.00
9984;DHT22;16737;50.932;6.780;2022-07-29T14:46:01;29.20;59.90
9984;DHT22;16737;50.932;6.780;2022-07-29T14:48:28;29.20;59.50
9984;DHT22;16737;50.932;6.780;2022-07-29T14:50:57;29.20;59.10
9984;DHT22;16737;50.932;6.780;2022-07-29T14:53:24;29.20;58.80
9984;DHT22;16737;50.932;6.780;2022-07-29T14:55:51;29.20;58.80
9984;DHT22;16737;50.932;6.780;2022-07-29T14:58:18;29.20;58.50
9984;DHT22;16737;50.932;6.780;2022-07-29T15:00:47;29.10;58.30
9984;DHT22;16737;50.932;6.780;2022-07-29T15:03:15;29.10;58.30
9984;DHT22;16737;50.932;6.780;2022-07-29T15:05:42;29.00;58.20
9984;DHT22;16737;50.932;6.780;2022-07-29T15:08:10;29.10;58.30
9984;DHT22;16737;50.932;6.780;2022-07-29T15:10:37;29.00;57.60
9984;DHT22;16737;50.932;6.780;2022-07-29T15:13:04;29.00;57.70
9984;DHT22;16737;50.932;6.780;2022-07-29T15:15:31;29.00;57.90
9984;DHT22;16737;50.932;6.780;2022-07-29T15:17:58;29.00;57.60
9984;DHT22;16737;50.932;6.780;2022-07-29T15:20:26;29.00;57.90
9984;DHT22;16737;50.932;6.780;2022-07-29T15:22:53;29.10;58.00
9984;DHT22;16737;50.932;6.780;2022-07-29T15:25:23;29.10;57.90
9984;DHT22;16737;50.932;6.780;2022-07-29T15:27:50;29.10;57.30
9984;DHT22;16737;50.932;6.780;2022-07-29T15:30:17;29.10;57.50
9984;DHT22;16737;50.932;6.780;2022-07-29T15:32:45;29.20;56.80
9984;DHT22;16737;50.932;6.780;2022-07-29T15:35:12;29.20;56.60
9984;DHT22;16737;50.932;6.780;2022-07-29T15:37:39;29.20;56.70
9984;DHT22;16737;50.932;6.780;2022-07-29T15:40:07;29.20;56.20
9984;DHT22;16737;50.932;6.780;2022-07-29T15:42:37;29.20;55.80
9984;DHT22;16737;50.932;6.780;2022-07-29T15:45:05;29.10;55.60
9984;DHT22;16737;50.932;6.780;2022-07-29T15:47:34;29.00;55.60
9984;DHT22;16737;50.932;6.780;2022-07-29T15:50:02;29.00;55.40
9984;DHT22;16737;50.932;6.780;2022-07-29T15:52:29;29.00;55.60
9984;DHT22;16737;50.932;6.780;2022-07-29T15:54:56;29.00;55.70
9984;DHT22;16737;50.932;6.780;2022-07-29T15:57:24;29.00;55.70
9984;DHT22;16737;50.932;6.780;2022-07-29T15:59:52;29.00;55.60
9984;DHT22;16737;50.932;6.780;2022-07-29T16:02:19;29.00;55.20
9984;DHT22;16737;50.932;6.780;2022-07-29T16:04:47;29.10;55.40
9984;DHT22;16737;50.932;6.780;2022-07-29T16:07:14;29.10;55.10
9984;DHT22;16737;50.932;6.780;2022-07-29T16:09:41;29.10;55.30
9984;DHT22;16737;50.932;6.780;2022-07-29T16:12:09;29.10;55.10
9984;DHT22;16737;50.932;6.780;2022-07-29T16:14:36;29.10;55.00
9984;DHT22;16737;50.932;6.780;2022-07-29T16:17:04;29.20;54.60
9984;DHT22;16737;50.932;6.780;2022-07-29T16:19:31;29.20;54.20
9984;DHT22;16737;50.932;6.780;2022-07-29T16:21:59;29.20;54.40
9984;DHT22;16737;50.932;6.780;2022-07-29T16:24:26;29.20;54.20
9984;DHT22;16737;50.932;6.780;2022-07-29T16:26:54;29.10;54.10
9984;DHT22;16737;50.932;6.780;2022-07-29T16:29:21;29.00;54.10
9984;DHT22;16737;50.932;6.780;2022-07-29T16:31:48;29.00;54.00
9984;DHT22;16737;50.932;6.780;2022-07-29T16:34:16;28.90;53.90
9984;DHT22;16737;50.932;6.780;2022-07-29T16:36:43;28.80;53.90
9984;DHT22;16737;50.932;6.780;2022-07-29T16:39:10;28.80;54.10
9984;DHT22;16737;50.932;6.780;2022-07-29T16:41:38;28.70;54.30
9984;DHT22;16737;50.932;6.780;2022-07-29T16:44:05;28.70;54.50
9984;DHT22;16737;50.932;6.780;2022-07-29T16:46:32;28.70;54.80
9984;DHT22;16737;50.932;6.780;2022-07-29T16:49:01;28.70;54.80
9984;DHT22;16737;50.932;6.780;2022-07-29T16:51:32;28.70;55.00
9984;DHT22;16737;50.932;6.780;2022-07-29T16:53:59;28.70;55.00
9984;DHT22;16737;50.932;6.780;2022-07-29T16:56:26;28.80;55.20
9984;DHT22;16737;50.932;6.780;2022-07-29T16:58:55;28.80;55.20
9984;DHT22;16737;50.932;6.780;2022-07-29T17:01:23;28.80;55.20
9984;DHT22;16737;50.932;6.780;2022-07-29T17:03:50;28.80;55.20
9984;DHT22;16737;50.932;6.780;2022-07-29T17:06:36;28.80;55.30
9984;DHT22;16737;50.932;6.780;2022-07-29T17:09:05;28.80;55.40
9984;DHT22;16737;50.932;6.780;2022-07-29T17:11:34;28.80;55.40
9984;DHT22;16737;50.932;6.780;2022-07-29T17:14:01;28.80;55.50
9984;DHT22;16737;50.932;6.780;2022-07-29T17:16:28;28.80;55.60
9984;DHT22;16737;50.932;6.780;2022-07-29T17:18:56;28.80;55.70
9984;DHT22;16737;50.932;6.780;2022-07-29T17:21:23;28.80;55.80
9984;DHT22;16737;50.932;6.780;2022-07-29T17:23:53;28.80;55.80
9984;DHT22;16737;50.932;6.780;2022-07-29T17:26:20;28.70;55.70
9984;DHT22;16737;50.932;6.780;2022-07-29T17:28:47;28.80;55.90
9984;DHT22;16737;50.932;6.780;2022-07-29T17:31:14;28.70;55.80
9984;DHT22;16737;50.932;6.780;2022-07-29T17:33:42;28.70;55.90
9984;DHT22;16737;50.932;6.780;2022-07-29T17:36:09;28.70;56.00
9984;DHT22;16737;50.932;6.780;2022-07-29T17:38:54;28.70;55.90
9984;DHT22;16737;50.932;6.780;2022-07-29T17:41:23;28.70;55.90
9984;DHT22;16737;50.932;6.780;2022-07-29T17:43:51;28.60;55.80
9984;DHT22;16737;50.932;6.780;2022-07-29T17:46:20;28.60;55.80
9984;DHT22;16737;50.932;6.780;2022-07-29T17:48:49;28.60;55.80
9984;DHT22;16737;50.932;6.780;2022-07-29T17:51:16;28.60;55.80